createdAt,value
2018-03-17T00:01:41.143Z,-2.30
2018-03-17T00:04:08.255Z,-2.30
2018-03-17T00:06:34.576Z,-2.40
2018-03-17T00:09:00.914Z,-2.40
2018-03-17T00:11:27.233Z,-2.30
2018-03-17T00:13:53.598Z,-2.30
2018-03-17T00:16:19.941Z,-2.30
2018-03-17T00:18:46.547Z,-2.30
2018-03-17T00:21:12.897Z,-2.20
2018-03-17T00:23:39.252Z,-2.30
2018-03-17T00:26:06.322Z,-2.40
2018-03-17T00:28:33.392Z,-2.40
2018-03-17T00:30:59.763Z,-2.40
2018-03-17T00:33:26.108Z,-2.40
2018-03-17T00:35:53.212Z,-2.40
2018-03-17T00:38:19.534Z,-2.50
2018-03-17T00:40:46.236Z,-2.40
2018-03-17T00:43:13.345Z,-2.40
2018-03-17T00:45:39.662Z,-2.50
2018-03-17T00:48:06.011Z,-2.50
2018-03-17T00:50:32.450Z,-2.50
2018-03-17T00:52:58.783Z,-2.50
2018-03-17T00:55:25.121Z,-2.50
2018-03-17T00:57:52.248Z,-2.60
2018-03-17T01:00:20.121Z,-2.50
2018-03-17T01:02:46.460Z,-2.50
2018-03-17T01:05:12.830Z,-2.60
2018-03-17T01:07:39.210Z,-2.60
2018-03-17T01:10:05.558Z,-2.60
2018-03-17T01:12:32.684Z,-2.60
2018-03-17T01:14:59.030Z,-2.60
2018-03-17T01:17:25.387Z,-2.60
2018-03-17T01:19:51.697Z,-2.70
2018-03-17T01:22:18.042Z,-2.60
2018-03-17T01:24:45.137Z,-2.60
2018-03-17T01:27:11.485Z,-2.60
2018-03-17T01:29:37.822Z,-2.60
2018-03-17T01:32:04.221Z,-2.60
2018-03-17T01:34:31.287Z,-2.70
2018-03-17T01:36:57.621Z,-2.80
2018-03-17T01:39:23.960Z,-2.70
2018-03-17T01:41:50.296Z,-2.60
2018-03-17T01:44:16.609Z,-2.60
2018-03-17T01:46:43.006Z,-2.80
2018-03-17T01:49:09.314Z,-2.90
2018-03-17T01:51:36.430Z,-3.00
2018-03-17T01:54:15.197Z,-3.00
2018-03-17T01:56:41.498Z,-2.90
2018-03-17T01:59:07.819Z,-2.90
2018-03-17T02:01:34.164Z,-3.00
2018-03-17T02:04:00.496Z,-3.00
2018-03-17T02:06:26.876Z,-2.90
2018-03-17T02:08:53.249Z,-2.90
2018-03-17T02:11:19.564Z,-2.90
2018-03-17T02:13:45.917Z,-2.90
2018-03-17T02:16:12.264Z,-3.10
2018-03-17T02:18:38.593Z,-3.10
2018-03-17T02:21:04.939Z,-3.20
2018-03-17T02:23:31.289Z,-3.10
2018-03-17T02:25:57.594Z,-3.00
2018-03-17T02:28:24.716Z,-3.10
2018-03-17T02:30:51.042Z,-3.10
2018-03-17T02:33:17.365Z,-2.90
2018-03-17T02:35:43.694Z,-3.00
2018-03-17T02:38:10.008Z,-2.90
2018-03-17T02:40:36.192Z,-3.00
2018-03-17T02:43:02.619Z,-3.10
2018-03-17T02:45:29.701Z,-3.10
2018-03-17T02:47:56.062Z,-3.20
2018-03-17T02:50:22.397Z,-3.30
2018-03-17T02:52:48.739Z,-3.20
2018-03-17T02:55:15.867Z,-3.10
2018-03-17T02:57:42.174Z,-3.20
2018-03-17T03:00:08.642Z,-3.10
2018-03-17T03:02:35.890Z,-3.20
2018-03-17T03:05:02.250Z,-3.30
2018-03-17T03:07:28.583Z,-3.30
2018-03-17T03:09:54.913Z,-3.30
2018-03-17T03:12:21.980Z,-3.30
2018-03-17T03:14:48.419Z,-3.30
2018-03-17T03:17:15.473Z,-3.30
2018-03-17T03:19:41.822Z,-3.30
2018-03-17T03:22:08.138Z,-3.30
2018-03-17T03:24:34.514Z,-3.30
2018-03-17T03:27:00.848Z,-3.20
2018-03-17T03:29:27.184Z,-3.30
2018-03-17T03:31:53.524Z,-3.30
2018-03-17T03:34:20.638Z,-3.30
2018-03-17T03:36:46.964Z,-3.30
2018-03-17T03:39:13.285Z,-3.40
2018-03-17T03:41:40.394Z,-3.40
2018-03-17T03:44:06.717Z,-3.50
2018-03-17T03:46:33.054Z,-3.30
2018-03-17T03:49:00.136Z,-3.50
2018-03-17T03:51:26.461Z,-3.50
2018-03-17T03:53:52.771Z,-3.40
2018-03-17T03:56:19.119Z,-3.30
2018-03-17T03:58:45.655Z,-3.40
2018-03-17T04:01:11.985Z,-3.40
2018-03-17T04:03:38.314Z,-3.40
2018-03-17T04:06:04.646Z,-3.50
2018-03-17T04:08:30.989Z,-3.40
2018-03-17T04:10:57.355Z,-3.50
2018-03-17T04:13:23.664Z,-3.50
2018-03-17T04:15:49.998Z,-3.50
2018-03-17T04:18:16.325Z,-3.50
2018-03-17T04:20:42.698Z,-3.60
2018-03-17T04:23:09.834Z,-3.50
2018-03-17T04:25:36.182Z,-3.50
2018-03-17T04:28:03.251Z,-3.70
2018-03-17T04:30:30.385Z,-3.60
2018-03-17T04:32:56.738Z,-3.70
2018-03-17T04:35:23.295Z,-3.60
2018-03-17T04:37:49.638Z,-3.50
2018-03-17T04:40:15.981Z,-3.40
2018-03-17T04:42:43.802Z,-3.70
2018-03-17T04:45:10.130Z,-3.70
2018-03-17T04:47:37.223Z,-3.60
2018-03-17T04:50:03.557Z,-3.60
2018-03-17T04:52:29.911Z,-3.60
2018-03-17T04:54:56.294Z,-3.60
2018-03-17T04:57:22.624Z,-3.60
2018-03-17T04:59:48.961Z,-3.70
2018-03-17T05:02:15.301Z,-3.60
2018-03-17T05:04:41.636Z,-3.60
2018-03-17T05:07:07.988Z,-3.60
2018-03-17T05:09:35.073Z,-3.60
2018-03-17T05:12:01.458Z,-3.70
2018-03-17T05:14:27.805Z,-3.60
2018-03-17T05:16:54.910Z,-3.70
2018-03-17T05:19:21.274Z,-3.70
2018-03-17T05:21:48.344Z,-3.80
2018-03-17T05:24:15.439Z,-3.70
2018-03-17T05:26:41.772Z,-3.80
2018-03-17T05:29:08.130Z,-3.70
2018-03-17T05:31:34.453Z,-3.60
2018-03-17T05:34:00.786Z,-3.60
2018-03-17T05:36:27.114Z,-3.60
2018-03-17T05:38:53.512Z,-3.50
2018-03-17T05:41:19.830Z,-3.50
2018-03-17T05:43:46.153Z,-3.50
2018-03-17T05:46:12.488Z,-3.60
2018-03-17T05:48:38.826Z,-3.60
2018-03-17T05:51:05.178Z,-3.60
2018-03-17T05:53:31.532Z,-3.70
2018-03-17T05:55:58.654Z,-3.60
2018-03-17T05:58:24.984Z,-3.70
2018-03-17T06:00:51.375Z,-3.70
2018-03-17T06:03:18.523Z,-3.70
2018-03-17T06:05:44.864Z,-3.70
2018-03-17T06:08:11.930Z,-3.50
2018-03-17T06:10:38.256Z,-3.60
2018-03-17T06:13:05.326Z,-3.40
2018-03-17T06:15:31.655Z,-3.50
2018-03-17T06:17:58.060Z,-3.50
2018-03-17T06:20:25.213Z,-3.50
2018-03-17T06:22:51.582Z,-3.60
2018-03-17T06:25:17.930Z,-3.40
2018-03-17T06:27:45.044Z,-3.30
2018-03-17T06:30:11.422Z,-3.40
2018-03-17T06:32:38.528Z,-3.40
2018-03-17T06:35:06.391Z,-3.40
2018-03-17T06:37:32.752Z,-3.40
2018-03-17T06:39:59.130Z,-3.30
2018-03-17T06:42:25.485Z,-3.40
2018-03-17T06:44:52.118Z,-3.40
2018-03-17T06:47:18.484Z,-3.40
2018-03-17T06:49:44.891Z,-3.40
2018-03-17T06:52:11.294Z,-3.30
2018-03-17T06:54:37.655Z,-3.30
2018-03-17T06:57:04.046Z,-3.20
2018-03-17T06:59:31.237Z,-3.20
2018-03-17T07:01:57.577Z,-3.20
2018-03-17T07:04:23.894Z,-3.20
2018-03-17T07:06:50.290Z,-3.20
2018-03-17T07:09:16.975Z,-3.30
2018-03-17T07:11:43.295Z,-3.20
2018-03-17T07:14:09.684Z,-3.20
2018-03-17T07:16:36.028Z,-3.30
2018-03-17T07:19:02.382Z,-3.30
2018-03-17T07:21:28.700Z,-3.20
2018-03-17T07:23:55.065Z,-3.20
2018-03-17T07:26:21.408Z,-3.10
2018-03-17T07:28:47.759Z,-3.20
2018-03-17T07:31:14.854Z,-3.10
2018-03-17T07:33:41.173Z,-3.20
2018-03-17T07:36:07.501Z,-3.10
2018-03-17T07:38:33.828Z,-3.10
2018-03-17T07:41:00.179Z,-3.20
2018-03-17T07:43:26.525Z,-2.90
2018-03-17T07:45:52.894Z,-2.80
2018-03-17T07:48:19.984Z,-2.80
2018-03-17T07:50:46.299Z,-2.90
2018-03-17T07:53:12.695Z,-2.90
2018-03-17T07:55:39.116Z,-3.00
2018-03-17T07:58:06.211Z,-2.80
2018-03-17T08:00:32.601Z,-2.80
2018-03-17T08:02:59.686Z,-2.80
2018-03-17T08:05:26.058Z,-2.80
2018-03-17T08:07:52.670Z,-2.70
2018-03-17T08:10:19.044Z,-2.70
2018-03-17T08:12:46.138Z,-2.70
2018-03-17T08:15:12.495Z,-2.70
2018-03-17T08:17:38.848Z,-2.60
2018-03-17T08:20:05.741Z,-2.50
2018-03-17T08:22:32.102Z,-2.30
2018-03-17T08:24:58.447Z,-2.30
2018-03-17T08:27:24.775Z,-2.20
2018-03-17T08:29:51.116Z,-2.20
2018-03-17T08:32:18.215Z,-2.20
2018-03-17T08:34:44.616Z,-2.30
2018-03-17T08:37:11.726Z,-2.50
2018-03-17T08:39:38.049Z,-2.50
2018-03-17T08:42:04.372Z,-2.30
2018-03-17T08:44:30.692Z,-2.20
2018-03-17T08:46:57.006Z,-2.10
2018-03-17T08:49:24.160Z,-2.10
2018-03-17T08:51:50.496Z,-2.20
2018-03-17T08:54:16.826Z,-2.10
2018-03-17T08:56:43.218Z,-2.00
2018-03-17T08:59:09.713Z,-1.90
2018-03-17T09:01:36.786Z,-1.70
2018-03-17T09:04:03.135Z,-1.80
2018-03-17T09:06:30.227Z,-1.80
2018-03-17T09:08:56.547Z,-1.80
2018-03-17T09:11:22.890Z,-1.80
2018-03-17T09:13:49.234Z,-1.70
2018-03-17T09:16:15.598Z,-1.70
2018-03-17T09:18:42.098Z,-1.60
2018-03-17T09:21:08.447Z,-1.40
2018-03-17T09:23:34.762Z,-1.50
2018-03-17T09:26:01.090Z,-1.50
2018-03-17T09:28:27.404Z,-1.60
2018-03-17T09:30:53.749Z,-1.70
2018-03-17T09:33:20.092Z,-1.80
2018-03-17T09:35:46.414Z,-1.80
2018-03-17T09:38:12.740Z,-1.70
2018-03-17T09:40:39.121Z,-1.70
2018-03-17T09:43:06.318Z,-1.60
2018-03-17T09:45:32.654Z,-1.70
2018-03-17T09:47:58.992Z,-1.40
2018-03-17T09:50:25.326Z,-1.40
2018-03-17T09:52:52.406Z,-1.30
2018-03-17T09:55:19.487Z,-1.60
2018-03-17T09:57:45.827Z,-1.60
2018-03-17T10:00:12.245Z,-1.70
2018-03-17T10:02:38.642Z,-1.70
2018-03-17T10:05:05.732Z,-1.50
2018-03-17T10:07:32.807Z,-1.40
2018-03-17T10:09:59.917Z,-1.50
2018-03-17T10:12:26.255Z,-1.50
2018-03-17T10:14:53.304Z,-1.30
2018-03-17T10:17:19.617Z,-1.40
2018-03-17T10:19:46.681Z,-1.10
2018-03-17T10:22:13.009Z,-1.20
2018-03-17T10:24:39.341Z,-1.20
2018-03-17T10:27:05.674Z,-1.30
2018-03-17T10:29:32.067Z,-1.20
2018-03-17T10:31:58.409Z,-1.10
2018-03-17T10:34:25.519Z,-0.90
2018-03-17T10:36:51.866Z,-1.00
2018-03-17T10:39:18.199Z,-0.90
2018-03-17T10:41:44.547Z,-0.80
2018-03-17T10:44:11.643Z,-0.60
2018-03-17T10:46:38.004Z,-0.70
2018-03-17T10:49:04.350Z,-0.70
2018-03-17T10:51:30.686Z,-0.70
2018-03-17T10:53:57.755Z,-0.80
2018-03-17T10:56:24.179Z,-0.90
2018-03-17T10:58:51.728Z,-0.70
2018-03-17T11:01:19.591Z,-0.80
2018-03-17T11:03:46.718Z,-0.80
2018-03-17T11:06:13.095Z,-0.90
2018-03-17T11:08:39.443Z,-0.70
2018-03-17T11:11:05.800Z,-0.50
2018-03-17T11:13:32.144Z,-0.40
2018-03-17T11:15:58.560Z,-0.40
2018-03-17T11:18:24.914Z,-0.40
2018-03-17T11:20:51.979Z,-0.40
2018-03-17T11:23:18.367Z,-0.50
2018-03-17T11:25:44.689Z,-0.50
2018-03-17T11:28:11.023Z,-0.40
2018-03-17T11:30:37.378Z,-0.60
2018-03-17T11:33:03.762Z,-0.50
2018-03-17T11:35:30.130Z,-0.50
2018-03-17T11:37:56.472Z,-0.40
2018-03-17T11:40:22.818Z,-0.30
2018-03-17T11:42:50.619Z,-0.40
2018-03-17T11:45:16.989Z,-0.40
2018-03-17T11:47:43.354Z,-0.30
2018-03-17T11:50:10.473Z,-0.30
2018-03-17T11:52:36.835Z,-0.30
2018-03-17T11:55:03.954Z,0.20
2018-03-17T11:57:30.283Z,0.10
2018-03-17T11:59:56.633Z,0.20
2018-03-17T12:02:22.956Z,0.30
2018-03-17T12:04:49.323Z,0.30
2018-03-17T12:07:15.673Z,0.00
2018-03-17T12:09:42.783Z,0.00
2018-03-17T12:12:09.950Z,0.30
2018-03-17T12:14:36.321Z,0.20
2018-03-17T12:17:02.682Z,0.30
2018-03-17T12:19:29.818Z,0.00
2018-03-17T12:21:56.898Z,0.20
2018-03-17T12:24:23.966Z,0.50
2018-03-17T12:26:50.344Z,0.30
2018-03-17T12:29:16.690Z,0.40
2018-03-17T12:31:43.823Z,0.40
2018-03-17T12:34:10.168Z,0.30
2018-03-17T12:36:36.515Z,0.40
2018-03-17T12:39:02.904Z,0.20
2018-03-17T12:41:29.282Z,0.40
2018-03-17T12:43:56.334Z,0.80
2018-03-17T12:46:22.702Z,0.70
2018-03-17T12:48:49.046Z,0.70
2018-03-17T12:51:15.394Z,0.70
2018-03-17T12:53:41.744Z,0.80
2018-03-17T12:56:08.845Z,1.10
2018-03-17T12:58:35.175Z,1.00
2018-03-17T13:01:02.263Z,0.90
2018-03-17T13:03:28.601Z,0.80
2018-03-17T13:05:54.953Z,0.60
2018-03-17T13:08:22.064Z,1.00
2018-03-17T13:10:48.385Z,1.00
2018-03-17T13:13:14.709Z,1.60
2018-03-17T13:15:41.076Z,1.70
2018-03-17T13:18:08.190Z,1.10
2018-03-17T13:20:34.550Z,1.00
2018-03-17T13:23:12.811Z,1.60
2018-03-17T13:25:39.157Z,1.60
2018-03-17T13:28:18.133Z,2.20
2018-03-17T13:30:52.492Z,2.60
2018-03-17T13:33:19.542Z,2.50
2018-03-17T13:35:58.282Z,2.50
2018-03-17T13:38:25.283Z,3.00
2018-03-17T13:40:51.643Z,3.30
2018-03-17T13:43:17.983Z,2.80
2018-03-17T13:45:44.327Z,2.70
2018-03-17T13:48:10.703Z,2.50
2018-03-17T13:50:37.062Z,2.40
2018-03-17T13:53:03.448Z,2.30
2018-03-17T13:55:29.800Z,1.40
2018-03-17T13:57:56.186Z,1.20
2018-03-17T14:00:23.486Z,1.50
2018-03-17T14:02:50.365Z,1.80
2018-03-17T14:05:16.707Z,2.60
2018-03-17T14:07:43.070Z,2.40
2018-03-17T14:10:10.134Z,2.40
2018-03-17T14:12:37.182Z,2.70
2018-03-17T14:15:04.271Z,3.10
2018-03-17T14:17:30.664Z,3.00
2018-03-17T14:19:56.989Z,3.60
2018-03-17T14:22:24.043Z,2.60
2018-03-17T14:24:51.153Z,1.70
2018-03-17T14:27:18.235Z,2.30
2018-03-17T14:29:45.295Z,2.40
2018-03-17T14:32:11.614Z,2.40
2018-03-17T14:34:38.994Z,2.90
2018-03-17T14:37:05.359Z,2.90
2018-03-17T14:39:31.949Z,3.50
2018-03-17T14:41:58.381Z,2.80
2018-03-17T14:44:24.749Z,2.70
2018-03-17T14:46:51.115Z,3.10
2018-03-17T14:49:17.534Z,3.50
2018-03-17T14:51:44.620Z,2.50
2018-03-17T14:54:11.153Z,2.40
2018-03-17T14:56:37.571Z,2.70
2018-03-17T14:59:04.687Z,3.70
2018-03-17T15:01:31.065Z,3.70
2018-03-17T15:03:57.430Z,4.30
2018-03-17T15:06:23.775Z,4.20
2018-03-17T15:08:50.157Z,4.10
2018-03-17T15:11:16.506Z,3.60
2018-03-17T15:13:42.927Z,3.40
2018-03-17T15:16:09.292Z,3.60
2018-03-17T15:18:35.659Z,3.20
2018-03-17T15:21:02.170Z,2.80
2018-03-17T15:23:28.552Z,2.90
2018-03-17T15:25:54.929Z,3.00
2018-03-17T15:28:21.275Z,2.70
2018-03-17T15:30:48.369Z,3.50
2018-03-17T15:33:14.713Z,3.40
2018-03-17T15:35:41.088Z,3.90
2018-03-17T15:38:08.166Z,3.50
2018-03-17T15:40:34.551Z,3.50
2018-03-17T15:43:00.890Z,3.70
2018-03-17T15:45:27.250Z,2.90
2018-03-17T15:47:54.372Z,2.50
2018-03-17T15:50:20.807Z,2.40
2018-03-17T15:52:48.060Z,2.40
2018-03-17T15:55:15.236Z,2.30
2018-03-17T15:57:45.158Z,2.00
2018-03-17T16:00:13.483Z,1.90
2018-03-17T16:02:39.848Z,1.80
2018-03-17T16:05:07.193Z,2.70
2018-03-17T16:07:34.319Z,3.30
2018-03-17T16:10:00.663Z,3.30
2018-03-17T16:12:27.100Z,3.20
2018-03-17T16:14:53.624Z,2.80
2018-03-17T16:17:20.002Z,2.40
2018-03-17T16:19:46.338Z,2.00
2018-03-17T16:22:14.339Z,1.80
2018-03-17T16:24:40.785Z,1.80
2018-03-17T16:27:07.945Z,2.10
2018-03-17T16:29:35.223Z,2.30
2018-03-17T16:32:02.453Z,2.00
2018-03-17T16:34:29.646Z,1.80
2018-03-17T16:36:56.032Z,1.80
2018-03-17T16:39:22.389Z,1.70
2018-03-17T16:41:49.486Z,1.50
2018-03-17T16:44:15.881Z,1.40
2018-03-17T16:46:42.290Z,1.50
2018-03-17T16:49:09.374Z,2.00
2018-03-17T16:51:35.769Z,1.90
2018-03-17T16:54:02.250Z,1.80
2018-03-17T16:56:28.613Z,1.90
2018-03-17T16:58:54.971Z,2.00
2018-03-17T17:01:22.140Z,1.60
2018-03-17T17:03:48.490Z,1.50
2018-03-17T17:06:14.827Z,1.10
2018-03-17T17:08:41.182Z,0.70
2018-03-17T17:11:07.512Z,0.20
2018-03-17T17:13:33.914Z,-0.20
2018-03-17T17:16:00.241Z,-0.20
2018-03-17T17:18:26.614Z,-0.30
2018-03-17T17:20:52.955Z,-0.50
2018-03-17T17:23:20.066Z,-0.60
2018-03-17T17:25:46.434Z,-0.70
2018-03-17T17:28:13.527Z,-0.80
2018-03-17T17:30:39.892Z,-0.80
2018-03-17T17:33:07.758Z,-0.90
2018-03-17T17:35:34.189Z,-0.90
2018-03-17T17:38:00.620Z,-0.60
2018-03-17T17:40:27.247Z,-0.70
2018-03-17T17:42:54.385Z,-0.90
2018-03-17T17:45:20.768Z,-0.90
2018-03-17T17:47:47.864Z,-0.80
2018-03-17T17:50:14.202Z,-0.90
2018-03-17T17:52:40.552Z,-0.80
2018-03-17T17:55:06.947Z,-0.90
2018-03-17T17:57:34.400Z,-1.20
2018-03-17T18:00:00.756Z,-1.30
2018-03-17T18:02:27.391Z,-1.20
2018-03-17T18:04:53.750Z,-1.10
2018-03-17T18:07:20.129Z,-1.10
2018-03-17T18:09:47.506Z,-1.10
2018-03-17T18:12:13.842Z,-1.10
2018-03-17T18:14:40.193Z,-1.10
2018-03-17T18:17:06.533Z,-1.30
2018-03-17T18:19:32.884Z,-1.20
2018-03-17T18:21:59.978Z,-1.30
2018-03-17T18:24:26.357Z,-1.40
2018-03-17T18:26:53.458Z,-1.20
2018-03-17T18:29:19.855Z,-1.30
2018-03-17T18:31:46.197Z,-1.20
2018-03-17T18:34:12.561Z,-1.30
2018-03-17T18:36:38.931Z,-1.30
2018-03-17T18:39:06.033Z,-1.60
2018-03-17T18:41:33.881Z,-1.70
2018-03-17T18:44:00.245Z,-1.70
2018-03-17T18:46:26.576Z,-1.50
2018-03-17T18:48:52.917Z,-1.40
2018-03-17T18:51:19.255Z,-1.40
2018-03-17T18:53:45.561Z,-1.70
2018-03-17T18:56:11.891Z,-1.60
2018-03-17T18:58:38.255Z,-1.70
2018-03-17T19:01:04.609Z,-1.80
2018-03-17T19:03:31.686Z,-1.80
2018-03-17T19:05:58.041Z,-1.90
2018-03-17T19:08:24.422Z,-1.80
2018-03-17T19:10:51.502Z,-1.70
2018-03-17T19:13:17.934Z,-1.70
2018-03-17T19:15:44.361Z,-1.80
2018-03-17T19:18:10.701Z,-1.80
2018-03-17T19:20:37.127Z,-1.70
2018-03-17T19:23:04.330Z,-1.70
2018-03-17T19:25:31.430Z,-1.90
2018-03-17T19:27:57.765Z,-1.90
2018-03-17T19:30:24.113Z,-1.80
2018-03-17T19:32:52.031Z,-2.10
2018-03-17T19:35:18.416Z,-2.10
2018-03-17T19:37:44.775Z,-1.90
2018-03-17T19:40:11.865Z,-1.80
2018-03-17T19:42:38.167Z,-1.90
2018-03-17T19:45:05.243Z,-1.80
2018-03-17T19:47:31.592Z,-1.80
2018-03-17T19:49:58.158Z,-1.80
2018-03-17T19:52:25.263Z,-1.80
2018-03-17T19:54:51.648Z,-1.90
2018-03-17T19:57:18.789Z,-1.90
2018-03-17T19:59:45.137Z,-1.90
2018-03-17T20:02:12.232Z,-1.80
2018-03-17T20:04:38.572Z,-1.80
2018-03-17T20:07:04.923Z,-1.80
2018-03-17T20:09:31.299Z,-1.90
2018-03-17T20:11:57.660Z,-1.90
2018-03-17T20:14:24.280Z,-2.00
2018-03-17T20:16:50.646Z,-2.10
2018-03-17T20:19:18.581Z,-2.00
2018-03-17T20:21:44.937Z,-2.00
2018-03-17T20:24:11.413Z,-2.10
2018-03-17T20:26:37.820Z,-2.00
2018-03-17T20:29:04.125Z,-2.00
2018-03-17T20:31:30.694Z,-2.00
2018-03-17T20:33:57.790Z,-2.20
2018-03-17T20:36:24.867Z,-2.10
2018-03-17T20:38:52.718Z,-2.10
2018-03-17T20:41:19.062Z,-2.10
2018-03-17T20:43:46.895Z,-2.20
2018-03-17T20:46:13.246Z,-2.20
2018-03-17T20:48:39.573Z,-2.00
2018-03-17T20:51:05.921Z,-2.10
2018-03-17T20:53:32.257Z,-2.10
2018-03-17T20:55:59.342Z,-2.20
2018-03-17T20:58:26.008Z,-2.30
2018-03-17T21:00:52.322Z,-2.10
2018-03-17T21:03:18.675Z,-2.10
2018-03-17T21:05:45.037Z,-2.20
2018-03-17T21:08:12.122Z,-2.20
2018-03-17T21:10:38.439Z,-2.30
2018-03-17T21:13:05.737Z,-2.10
2018-03-17T21:15:32.845Z,-2.20
2018-03-17T21:17:59.947Z,-2.20
2018-03-17T21:20:26.279Z,-2.30
2018-03-17T21:22:52.599Z,-2.30
2018-03-17T21:25:18.956Z,-2.40
2018-03-17T21:27:46.919Z,-2.40
2018-03-17T21:30:13.257Z,-2.40
2018-03-17T21:32:39.622Z,-2.30
2018-03-17T21:35:05.953Z,-2.40
2018-03-17T21:37:32.300Z,-2.30
2018-03-17T21:39:58.620Z,-2.40
2018-03-17T21:42:25.006Z,-2.40
2018-03-17T21:44:51.328Z,-2.40
2018-03-17T21:47:18.409Z,-2.40
2018-03-17T21:49:45.486Z,-2.50
2018-03-17T21:52:12.585Z,-2.50
2018-03-17T21:54:39.711Z,-2.50
2018-03-17T21:57:06.048Z,-2.50
2018-03-17T21:59:32.376Z,-2.60
2018-03-17T22:01:58.741Z,-2.50
2018-03-17T22:04:25.857Z,-2.60
2018-03-17T22:06:52.348Z,-2.70
2018-03-17T22:09:18.729Z,-2.70
2018-03-17T22:11:45.088Z,-2.70
2018-03-17T22:14:12.203Z,-2.70
2018-03-17T22:16:39.299Z,-2.70
2018-03-17T22:19:06.407Z,-2.70
2018-03-17T22:21:32.754Z,-2.70
2018-03-17T22:23:59.866Z,-2.80
2018-03-17T22:26:26.212Z,-2.80
2018-03-17T22:28:52.552Z,-2.80
2018-03-17T22:31:18.874Z,-2.80
2018-03-17T22:33:45.220Z,-2.80
2018-03-17T22:36:11.538Z,-2.70
2018-03-17T22:38:39.461Z,-2.90
2018-03-17T22:41:05.818Z,-2.90
2018-03-17T22:43:32.170Z,-2.90
2018-03-17T22:45:58.546Z,-2.90
2018-03-17T22:48:25.644Z,-2.90
2018-03-17T22:50:51.958Z,-3.00
2018-03-17T22:53:19.082Z,-2.80
2018-03-17T22:55:45.431Z,-2.90
2018-03-17T22:58:11.871Z,-2.80
2018-03-17T23:00:39.812Z,-3.00
2018-03-17T23:03:06.163Z,-3.10
2018-03-17T23:05:32.694Z,-2.90
2018-03-17T23:07:59.030Z,-3.00
2018-03-17T23:10:25.384Z,-2.90
2018-03-17T23:12:51.705Z,-3.00
2018-03-17T23:15:18.819Z,-3.00
2018-03-17T23:17:45.141Z,-3.00
2018-03-17T23:20:12.239Z,-3.00
2018-03-17T23:22:38.577Z,-3.10
2018-03-17T23:25:04.929Z,-3.00
2018-03-17T23:27:31.999Z,-3.10
2018-03-17T23:29:59.234Z,-3.10
2018-03-17T23:32:26.355Z,-3.10
2018-03-17T23:34:52.692Z,-3.20
2018-03-17T23:37:20.522Z,-3.20
2018-03-17T23:39:46.878Z,-3.20
2018-03-17T23:42:13.256Z,-3.20
2018-03-17T23:44:40.377Z,-3.10
2018-03-17T23:47:07.465Z,-3.20
2018-03-17T23:49:33.846Z,-3.30
2018-03-17T23:52:00.227Z,-3.10
2018-03-17T23:54:26.580Z,-3.20
2018-03-17T23:56:52.930Z,-3.10
2018-03-17T23:59:19.271Z,-3.30
